createdAt,value
2018-11-27T00:00:13.649Z,4.10
2018-11-27T00:05:16.822Z,4.87
2018-11-27T00:10:20.001Z,4.20
2018-11-27T00:15:23.225Z,4.72
2018-11-27T00:20:26.417Z,3.95
2018-11-27T00:25:29.642Z,3.70
2018-11-27T00:30:32.814Z,4.63
2018-11-27T00:35:36.039Z,3.77
2018-11-27T00:40:39.249Z,4.17
2018-11-27T00:45:42.458Z,3.90
2018-11-27T00:50:45.641Z,4.13
2018-11-27T00:55:48.822Z,4.10
2018-11-27T01:00:51.989Z,3.40
2018-11-27T01:05:55.204Z,4.00
2018-11-27T01:10:58.434Z,4.10
2018-11-27T01:16:01.614Z,4.10
2018-11-27T01:21:05.139Z,3.80
2018-11-27T01:26:08.310Z,3.80
2018-11-27T01:31:11.546Z,3.80
2018-11-27T01:36:14.789Z,3.47
2018-11-27T01:41:17.971Z,3.03
2018-11-27T01:46:21.174Z,3.50
2018-11-27T01:51:24.366Z,4.27
2018-11-27T01:56:27.574Z,3.40
2018-11-27T02:01:30.737Z,3.15
2018-11-27T02:06:33.906Z,3.40
2018-11-27T02:11:37.113Z,3.62
2018-11-27T02:16:40.332Z,3.30
2018-11-27T02:21:43.526Z,3.73
2018-11-27T02:26:46.732Z,4.30
2018-11-27T02:31:49.937Z,3.00
2018-11-27T02:36:53.134Z,3.73
2018-11-27T02:41:56.344Z,3.70
2018-11-27T02:46:59.567Z,3.80
2018-11-27T02:52:02.765Z,3.57
2018-11-27T02:57:05.996Z,3.50
2018-11-27T03:02:09.181Z,3.17
2018-11-27T03:07:12.408Z,3.43
2018-11-27T03:12:15.600Z,3.35
2018-11-27T03:17:18.820Z,3.33
2018-11-27T03:22:22.008Z,3.23
2018-11-27T03:27:25.229Z,3.22
2018-11-27T03:32:28.429Z,3.03
2018-11-27T03:37:31.588Z,3.40
2018-11-27T03:42:34.804Z,3.20
2018-11-27T03:47:38.073Z,3.30
2018-11-27T03:52:41.294Z,3.23
2018-11-27T03:57:44.482Z,2.93
2018-11-27T04:02:52.917Z,3.12
2018-11-27T04:07:56.138Z,3.58
2018-11-27T04:12:59.351Z,3.05
2018-11-27T04:18:02.518Z,3.30
2018-11-27T04:23:05.767Z,2.73
2018-11-27T04:28:08.970Z,3.37
2018-11-27T04:33:12.174Z,3.08
2018-11-27T04:38:15.379Z,3.50
2018-11-27T04:43:18.582Z,2.73
2018-11-27T04:48:21.780Z,3.90
2018-11-27T04:53:25.003Z,3.00
2018-11-27T04:58:28.214Z,3.20
2018-11-27T05:03:31.418Z,2.97
2018-11-27T05:08:34.632Z,3.30
2018-11-27T05:13:37.849Z,3.33
2018-11-27T05:18:41.032Z,3.33
2018-11-27T05:23:44.270Z,2.90
2018-11-27T05:28:47.478Z,3.10
2018-11-27T05:33:50.767Z,3.17
2018-11-27T05:38:53.982Z,3.20
2018-11-27T05:43:57.213Z,3.20
2018-11-27T05:49:00.397Z,3.20
2018-11-27T05:54:03.566Z,3.40
2018-11-27T05:59:06.834Z,3.40
2018-11-27T06:04:10.038Z,3.30
2018-11-27T06:09:13.238Z,2.90
2018-11-27T06:14:16.450Z,2.70
2018-11-27T06:19:19.651Z,3.03
2018-11-27T06:24:22.858Z,3.10
2018-11-27T06:29:26.066Z,2.80
2018-11-27T06:34:29.269Z,3.10
2018-11-27T06:39:32.490Z,3.17
2018-11-27T06:44:35.689Z,3.23
2018-11-27T06:49:38.899Z,3.10
2018-11-27T06:54:42.110Z,3.40
2018-11-27T06:59:45.318Z,3.50
2018-11-27T07:04:48.530Z,2.97
2018-11-27T07:09:51.738Z,2.83
2018-11-27T07:14:54.946Z,2.80
2018-11-27T07:19:58.151Z,3.00
2018-11-27T07:25:01.387Z,3.20
2018-11-27T07:30:07.561Z,3.27
2018-11-27T07:35:12.710Z,3.00
2018-11-27T07:40:17.922Z,3.43
2018-11-27T07:45:22.087Z,3.73
2018-11-27T07:50:25.297Z,13.73
2018-11-27T07:55:28.497Z,14.90
2018-11-27T08:00:31.721Z,15.00
2018-11-27T08:05:37.989Z,13.50
2018-11-27T08:10:41.722Z,11.80
2018-11-27T08:15:44.930Z,11.03
2018-11-27T08:20:48.107Z,9.93
2018-11-27T08:25:51.337Z,8.97
2018-11-27T08:30:54.554Z,9.37
2018-11-27T08:35:57.758Z,8.53
2018-11-27T08:41:00.953Z,7.80
2018-11-27T08:46:04.170Z,7.53
2018-11-27T08:51:07.377Z,7.23
2018-11-27T08:56:10.602Z,6.80
2018-11-27T09:01:13.803Z,7.00
2018-11-27T09:06:17.020Z,6.90
2018-11-27T09:11:20.221Z,6.80
2018-11-27T09:16:23.425Z,6.27
2018-11-27T09:21:26.626Z,6.90
2018-11-27T09:26:29.850Z,7.50
2018-11-27T09:31:33.049Z,6.13
2018-11-27T09:36:36.254Z,6.93
2018-11-27T09:41:39.474Z,5.53
2018-11-27T09:46:42.681Z,6.00
2018-11-27T09:51:45.894Z,6.67
2018-11-27T09:56:49.090Z,6.03
2018-11-27T10:01:52.310Z,5.80
2018-11-27T10:06:55.514Z,6.00
2018-11-27T10:11:58.725Z,6.07
2018-11-27T10:17:01.944Z,5.83
2018-11-27T10:22:05.195Z,5.57
2018-11-27T10:27:08.371Z,5.37
2018-11-27T10:32:11.549Z,5.53
2018-11-27T10:37:14.796Z,4.70
2018-11-27T10:42:17.966Z,5.50
2018-11-27T10:47:21.209Z,4.93
2018-11-27T10:52:24.400Z,5.30
2018-11-27T10:57:27.590Z,5.27
2018-11-27T11:02:34.049Z,5.50
2018-11-27T11:07:37.286Z,5.17
2018-11-27T11:12:40.494Z,5.60
2018-11-27T11:17:43.694Z,5.12
2018-11-27T11:22:46.927Z,5.33
2018-11-27T11:27:51.758Z,4.70
2018-11-27T11:32:54.973Z,5.03
2018-11-27T11:37:58.178Z,4.97
2018-11-27T11:43:01.383Z,4.87
2018-11-27T11:48:04.566Z,5.47
2018-11-27T11:53:12.205Z,4.97
2018-11-27T11:58:15.409Z,5.70
2018-11-27T12:03:18.586Z,5.13
2018-11-27T12:08:21.845Z,5.20
2018-11-27T12:13:25.044Z,5.33
2018-11-27T12:18:28.262Z,4.83
2018-11-27T12:23:31.458Z,5.20
2018-11-27T12:28:34.673Z,5.40
2018-11-27T12:33:37.867Z,5.30
2018-11-27T12:38:41.077Z,5.57
2018-11-27T12:43:44.302Z,5.57
2018-11-27T12:48:47.498Z,4.70
2018-11-27T12:53:50.714Z,5.40
2018-11-27T12:58:53.918Z,5.10
2018-11-27T13:03:57.162Z,4.87
2018-11-27T13:09:00.353Z,4.87
2018-11-27T13:14:03.554Z,5.50
2018-11-27T13:19:06.745Z,4.60
2018-11-27T13:24:09.971Z,5.13
2018-11-27T13:29:13.192Z,5.13
2018-11-27T13:34:16.598Z,5.22
2018-11-27T13:39:31.578Z,4.70
2018-11-27T13:44:34.759Z,5.40
2018-11-27T13:49:38.003Z,14.75
2018-11-27T13:54:41.226Z,15.57
2018-11-27T13:59:44.406Z,15.17
2018-11-27T14:04:47.609Z,12.00
2018-11-27T14:09:50.826Z,10.47
2018-11-27T14:14:54.040Z,9.93
2018-11-27T14:19:57.234Z,8.90
2018-11-27T14:25:00.454Z,8.83
2018-11-27T14:30:08.733Z,8.13
2018-11-27T14:35:12.610Z,8.13
2018-11-27T14:40:16.895Z,8.40
2018-11-27T14:45:21.537Z,7.47
2018-11-27T14:50:24.745Z,7.92
2018-11-27T14:55:30.961Z,8.00
2018-11-27T15:00:34.184Z,7.90
2018-11-27T15:05:38.778Z,7.93
2018-11-27T15:10:42.030Z,7.27
2018-11-27T15:15:45.230Z,7.00
2018-11-27T15:20:48.434Z,7.73
2018-11-27T15:25:51.678Z,7.20
2018-11-27T15:30:54.863Z,7.60
2018-11-27T15:35:58.070Z,6.77
2018-11-27T15:41:01.299Z,7.53
2018-11-27T15:46:04.510Z,7.23
2018-11-27T15:51:07.704Z,6.87
2018-11-27T15:56:10.866Z,6.67
2018-11-27T16:01:14.021Z,6.07
2018-11-27T16:06:17.223Z,6.43
2018-11-27T16:11:20.427Z,6.50
2018-11-27T16:16:23.659Z,6.13
2018-11-27T16:21:26.848Z,6.90
2018-11-27T16:26:30.054Z,6.00
2018-11-27T16:31:33.271Z,6.83
2018-11-27T16:36:36.430Z,6.10
2018-11-27T16:41:39.670Z,6.33
2018-11-27T16:46:42.874Z,6.77
2018-11-27T16:51:46.103Z,6.13
2018-11-27T16:56:49.297Z,6.22
2018-11-27T17:01:52.505Z,6.77
2018-11-27T17:06:55.713Z,6.37
2018-11-27T17:11:58.930Z,5.40
2018-11-27T17:17:02.092Z,5.90
2018-11-27T17:22:07.019Z,6.03
2018-11-27T17:27:08.949Z,5.23
2018-11-27T17:32:12.163Z,5.13
2018-11-27T18:05:23.754Z,5.40
2018-11-27T18:10:26.935Z,4.67
2018-11-27T18:15:30.150Z,5.00
2018-11-27T18:20:33.342Z,5.10
2018-11-27T18:25:36.527Z,4.83
2018-11-27T18:30:39.782Z,5.50
2018-11-27T18:35:42.942Z,5.27
2018-11-27T18:40:46.183Z,4.45
2018-11-27T18:45:49.401Z,4.87
2018-11-27T18:50:52.567Z,5.33
2018-11-27T18:55:55.985Z,4.95
2018-11-27T19:00:59.198Z,4.53
2018-11-27T19:06:02.358Z,5.17
2018-11-27T19:11:06.026Z,5.40
2018-11-27T19:50:03.583Z,4.57
2018-11-27T19:55:08.690Z,4.30
2018-11-27T20:00:28.106Z,4.77
2018-11-27T20:05:31.359Z,4.55
2018-11-27T20:10:34.556Z,4.67
2018-11-27T20:15:37.729Z,4.60
2018-11-27T20:20:40.958Z,4.40
2018-11-27T20:25:44.155Z,4.47
2018-11-27T20:30:47.381Z,4.13
2018-11-27T20:35:50.585Z,3.70
2018-11-27T20:40:53.815Z,3.93
2018-11-27T20:45:59.719Z,4.67
2018-11-27T20:51:04.887Z,4.70
2018-11-27T20:56:08.563Z,4.27
2018-11-27T21:01:11.757Z,4.40
2018-11-27T21:06:14.972Z,3.57
2018-11-27T21:11:18.173Z,4.08
2018-11-27T21:16:21.381Z,4.08
2018-11-27T21:21:24.595Z,4.80
2018-11-27T21:26:27.829Z,4.03
2018-11-27T21:31:31.015Z,4.20
2018-11-27T21:36:34.186Z,4.50
2018-11-27T21:41:37.425Z,4.27
2018-11-27T21:46:40.599Z,4.27
2018-11-27T21:51:43.785Z,4.47
2018-11-27T21:56:47.061Z,4.13
2018-11-27T22:01:50.254Z,4.20
2018-11-27T22:06:53.461Z,3.70
2018-11-27T22:11:56.673Z,3.67
2018-11-27T22:16:59.887Z,3.77
2018-11-27T22:22:03.094Z,3.95
2018-11-27T22:27:06.510Z,3.87
2018-11-27T22:32:09.685Z,3.93
2018-11-27T22:37:13.142Z,3.63
2018-11-27T22:42:16.439Z,3.98
2018-11-27T22:47:19.663Z,3.50
2018-11-27T22:52:22.858Z,3.85
2018-11-27T22:57:26.061Z,4.00
2018-11-27T23:02:29.281Z,3.25
2018-11-27T23:07:37.886Z,4.00
2018-11-27T23:12:41.122Z,3.80
2018-11-27T23:17:44.311Z,3.57
2018-11-27T23:22:47.474Z,3.67
2018-11-27T23:27:50.839Z,3.90
2018-11-27T23:32:54.054Z,3.30
2018-11-27T23:37:57.242Z,3.43
2018-11-27T23:43:00.974Z,3.53
2018-11-27T23:48:04.187Z,3.37
2018-11-27T23:53:07.917Z,3.03
2018-11-27T23:58:11.205Z,3.53
